Time;durP1;ratioP1;P1;durP2;ratioP2;P2;SDS_P1;SDS_P2;PMS_P1;PMS_P2;Temp;Humidity;BMP_temperature;BMP_pressure;BME280_temperature;BME280_humidity;BME280_pressure;Samples;Min_cycle;Max_cycle;Signal;HPM_P1;HPM_P2
2021/01/13 00:02:02;;;;;;;15.10;2.67;;;5.10;99.90;;;;;;4919216;29;20489;-93
2021/01/13 00:05:03;;;;;;;;;;;;;;;;;;;;;
2021/01/13 00:08:09;;;;;;;19.77;3.30;;;5.00;99.90;;;;;;4959700;29;20106;-92
2021/01/13 00:11:34;;;;;;;;;;;;;;;;;;;;;
2021/01/13 00:14:23;;;;;;;18.23;2.90;;;5.10;99.90;;;;;;4955148;28;20118;-92
2021/01/13 00:28:25;;;;;;;20.88;2.95;;;5.20;99.90;;;;;;4753333;30;20032;-93
2021/01/13 00:31:20;;;;;;;13.50;3.90;;;5.30;99.90;;;;;;4815627;29;20082;-92
2021/01/13 00:37:49;;;;;;;25.67;3.78;;;5.40;99.90;;;;;;4948518;29;20054;-92
2021/01/13 00:43:56;;;;;;;20.00;3.72;;;5.30;99.90;;;;;;4935289;29;20040;-91
2021/01/13 00:46:52;;;;;;;24.77;4.10;;;5.30;99.90;;;;;;4942312;29;20087;-92
2021/01/13 00:49:38;;;;;;;;;;;;;;;;;;;;;
2021/01/13 00:52:48;;;;;;;19.13;3.75;;;5.40;99.90;;;;;;4954880;28;20134;-93
2021/01/13 00:58:33;;;;;;;29.27;5.22;;;5.40;99.90;;;;;;4904769;29;20071;-91
2021/01/13 01:01:32;;;;;;;18.98;3.83;;;5.40;99.90;;;;;;4947217;29;20075;-91
2021/01/13 01:04:54;;;;;;;;;;;;;;;;;;;;;
2021/01/13 01:07:28;;;;;;;24.60;3.83;;;5.40;99.90;;;;;;4965958;29;20539;-92
2021/01/13 01:10:02;;;;;;;24.83;3.88;;;5.50;99.90;;;;;;4946078;29;20430;-91
2021/01/13 01:12:33;;;;;;;23.92;4.57;;;5.50;99.90;;;;;;4956179;29;20034;-91
2021/01/13 01:18:18;;;;;;;18.67;3.78;;;5.50;99.90;;;;;;4971357;29;20043;-91
2021/01/13 01:21:18;;;;;;;20.40;4.13;;;5.40;99.90;;;;;;4949719;29;20125;-92
2021/01/13 01:24:02;;;;;;;23.40;3.88;;;5.30;99.90;;;;;;4952186;29;20496;-92
2021/01/13 01:27:03;;;;;;;29.00;3.10;;;5.30;99.90;;;;;;4945905;29;20031;-92
2021/01/13 01:29:45;;;;;;;12.32;3.33;;;5.40;99.90;;;;;;4939516;29;20027;-91
2021/01/13 01:32:36;;;;;;;13.30;2.47;;;5.50;99.90;;;;;;4957782;29;20095;-92
2021/01/13 01:35:21;;;;;;;;;;;;;;;;;;;;;
2021/01/13 01:38:01;;;;;;;18.38;3.45;;;5.40;99.90;;;;;;4954624;29;20050;-91
2021/01/13 01:41:38;;;;;;;14.98;2.90;;;5.40;99.90;;;;;;4958000;29;20054;-91
2021/01/13 01:44:37;;;;;;;18.20;2.60;;;5.30;99.90;;;;;;4862340;29;20056;-92
2021/01/13 01:47:15;;;;;;;9.48;2.47;;;5.30;99.90;;;;;;4941590;29;20035;-91
2021/01/13 01:49:54;;;;;;;14.07;3.08;;;5.30;99.90;;;;;;4942335;29;20119;-91
2021/01/13 01:52:20;;;;;;;13.65;2.85;;;5.20;99.90;;;;;;4942565;29;20130;-92
2021/01/13 01:55:23;;;;;;;16.40;3.58;;;5.20;99.90;;;;;;4942253;29;20148;-92
2021/01/13 01:58:25;;;;;;;16.17;2.95;;;5.20;99.90;;;;;;4956845;29;20086;-91
2021/01/13 02:01:06;;;;;;;23.25;3.30;;;5.20;99.90;;;;;;4942855;29;20039;-91
2021/01/13 02:04:24;;;;;;;22.77;4.68;;;5.30;99.90;;;;;;4942517;29;20039;-90
2021/01/13 02:07:31;;;;;;;15.70;3.28;;;5.40;99.90;;;;;;4923921;29;20035;-92
2021/01/13 02:10:28;;;;;;;30.05;4.00;;;5.30;99.90;;;;;;4960897;29;20058;-92
2021/01/13 02:13:25;;;;;;;25.65;4.38;;;5.20;99.90;;;;;;4943850;29;20038;-92
2021/01/13 02:16:06;;;;;;;21.98;4.13;;;5.20;99.90;;;;;;4939175;29;20544;-91
2021/01/13 02:18:54;;;;;;;23.85;3.47;;;5.20;99.90;;;;;;4958186;29;20054;-91
2021/01/13 02:21:34;;;;;;;22.30;3.70;;;5.10;99.90;;;;;;4943543;29;20046;-93
2021/01/13 02:25:13;;;;;;;21.20;4.28;;;5.20;99.90;;;;;;4943486;29;20031;-91
2021/01/13 02:28:26;;;;;;;;;;;;;;;;;;;;;
2021/01/13 02:31:20;;;;;;;21.65;3.70;;;5.20;99.90;;;;;;4952071;29;20094;-92
2021/01/13 02:34:17;;;;;;;14.38;3.60;;;5.20;99.90;;;;;;4961190;29;20039;-90
2021/01/13 02:37:00;;;;;;;23.40;3.67;;;5.20;99.90;;;;;;4958027;29;20055;-91
2021/01/13 02:39:37;;;;;;;15.85;2.97;;;5.30;99.90;;;;;;4942929;29;20042;-90
2021/01/13 02:42:11;;;;;;;22.92;3.80;;;5.30;99.90;;;;;;4942467;29;20533;-91
2021/01/13 02:44:44;;;;;;;;;;;5.40;99.90;;;;;;4943354;29;20039;-91
2021/01/13 02:47:37;;;;;;;;;;;;;;;;;;;;;
2021/01/13 02:50:14;;;;;;;19.65;3.47;;;5.10;99.90;;;;;;4957920;29;20556;-92
2021/01/13 02:53:34;;;;;;;13.75;3.45;;;4.80;99.90;;;;;;4968598;29;20054;-93
2021/01/13 02:56:25;;;;;;;;;;;;;;;;;;;;;
2021/01/13 02:59:24;;;;;;;25.58;3.60;;;4.80;99.90;;;;;;4958513;29;20122;-93
2021/01/13 03:02:36;;;;;;;15.95;3.00;;;4.80;99.90;;;;;;4940796;29;20054;-93
2021/01/13 03:05:28;;;;;;;;;;;;;;;;;;;;;
2021/01/13 03:08:31;;;;;;;26.90;4.20;;;5.00;99.90;;;;;;4959800;29;20450;-94
2021/01/13 03:11:13;;;;;;;27.08;4.20;;;5.00;99.90;;;;;;4943636;29;20388;-92
2021/01/13 03:14:26;;;;;;;25.63;4.43;;;5.10;99.90;;;;;;4925937;29;20043;-92
2021/01/13 03:20:44;;;;;;;24.88;4.80;;;5.10;99.90;;;;;;4959651;29;20043;-91
2021/01/13 03:23:43;;;;;;;;;;;;;;;;;;;;;
2021/01/13 03:26:36;;;;;;;;;;;;;;;;;;;;;
2021/01/13 03:30:06;;;;;;;;;;;;;;;;;;;;;
2021/01/13 03:33:15;;;;;;;;;;;;;;;;;;;;;
2021/01/13 03:36:37;;;;;;;;;;;;;;;;;;;;;
2021/01/13 03:39:26;;;;;;;19.88;3.80;;;5.30;99.90;;;;;;4845130;29;20587;-92
2021/01/13 03:42:22;;;;;;;20.88;3.55;;;5.30;99.90;;;;;;4829959;29;20140;-92
2021/01/13 03:45:27;;;;;;;19.23;4.10;;;5.30;99.90;;;;;;4866457;29;20170;-91
2021/01/13 03:49:02;;;;;;;16.92;3.85;;;5.40;99.90;;;;;;4881974;29;20045;-93
2021/01/13 03:52:12;;;;;;;23.38;4.30;;;5.40;99.90;;;;;;4862146;29;20030;-92
2021/01/13 03:55:08;;;;;;;;;;;;;;;;;;;;;
2021/01/13 03:58:19;;;;;;;;;;;;;;;;;;;;;
2021/01/13 04:05:30;;;;;;;21.02;3.75;;;5.50;99.90;;;;;;4864657;29;20443;-90
2021/01/13 04:08:39;;;;;;;21.70;5.20;;;5.50;99.90;;;;;;4854354;29;20124;-91
2021/01/13 04:11:48;;;;;;;;;;;;;;;;;;;;;
2021/01/13 04:15:00;;;;;;;;;;;;;;;;;;;;;
2021/01/13 04:17:30;;;;;;;20.65;3.83;;;5.50;99.90;;;;;;4931377;29;20099;-91
2021/01/13 04:20:29;;;;;;;;;;;;;;;;;;;;;
2021/01/13 04:26:10;;;;;;;20.27;3.85;;;5.50;99.90;;;;;;4959373;29;20016;-92
2021/01/13 04:28:51;;;;;;;18.90;4.07;;;5.40;99.90;;;;;;4946421;29;20101;-93
2021/01/13 04:31:48;;;;;;;18.80;3.35;;;5.40;99.90;;;;;;4962720;29;20055;-91
2021/01/13 04:34:39;;;;;;;17.55;3.70;;;5.40;99.90;;;;;;4942857;29;20078;-90
2021/01/13 04:37:30;;;;;;;;;;;;;;;;;;;;;
2021/01/13 04:40:25;;;;;;;12.70;3.50;;;5.40;99.90;;;;;;4982774;28;20205;-90
2021/01/13 04:43:33;;;;;;;15.00;3.60;;;5.30;99.90;;;;;;4965532;29;20028;-90
2021/01/13 04:46:29;;;;;;;25.33;4.53;;;5.30;99.90;;;;;;4927534;29;20044;-91
2021/01/13 04:49:34;;;;;;;23.00;3.55;;;5.30;99.90;;;;;;4966147;28;20025;-91
2021/01/13 04:52:46;;;;;;;24.73;3.05;;;5.40;99.90;;;;;;4982063;28;20087;-91
2021/01/13 04:55:22;;;;;;;25.50;4.60;;;5.40;99.90;;;;;;4953944;29;20039;-91
2021/01/13 04:58:12;;;;;;;21.05;3.95;;;5.30;99.90;;;;;;4975921;29;20026;-91
2021/01/13 05:00:59;;;;;;;28.38;4.45;;;5.30;99.90;;;;;;4960926;29;20019;-90
2021/01/13 05:04:25;;;;;;;18.63;3.95;;;5.30;99.90;;;;;;4937728;29;20084;-91
2021/01/13 05:07:18;;;;;;;15.52;3.28;;;5.30;99.90;;;;;;4919561;29;20062;-91
2021/01/13 05:10:11;;;;;;;16.08;3.25;;;5.30;99.90;;;;;;4925950;29;20053;-89
2021/01/13 05:12:46;;;;;;;15.77;4.20;;;5.20;99.90;;;;;;4919559;29;20036;-92
2021/01/13 05:15:27;;;;;;;15.98;4.72;;;5.20;99.90;;;;;;4927754;29;20036;-91
2021/01/13 05:21:17;;;;;;;20.85;3.13;;;5.20;99.90;;;;;;4914344;29;20075;-91
2021/01/13 05:23:51;;;;;;;17.40;3.90;;;5.20;99.90;;;;;;4920527;29;20048;-92
2021/01/13 05:26:38;;;;;;;;;;;;;;;;;;;;;
2021/01/13 05:32:41;;;;;;;19.67;3.22;;;5.30;99.90;;;;;;4897335;29;20035;-92
2021/01/13 05:35:08;;;;;;;25.92;3.72;;;5.30;99.90;;;;;;4942521;29;20477;-91
2021/01/13 05:38:25;;;;;;;20.05;4.20;;;5.30;99.90;;;;;;4941388;29;20082;-91
2021/01/13 05:41:03;;;;;;;;;;;5.30;99.90;;;;;;4903554;29;20029;-92
2021/01/13 05:44:09;;;;;;;27.98;4.43;;;5.30;99.90;;;;;;4954300;29;20313;-92
2021/01/13 05:50:01;;;;;;;15.38;3.58;;;5.30;99.90;;;;;;4959362;29;20035;-90
2021/01/13 05:52:57;;;;;;;20.63;4.03;;;5.30;99.90;;;;;;4956241;29;20112;-91
2021/01/13 05:55:31;;;;;;;18.42;3.60;;;5.30;99.90;;;;;;4957480;29;20482;-91
2021/01/13 05:58:11;;;;;;;21.08;3.38;;;5.30;99.90;;;;;;4941963;29;20035;-91
2021/01/13 06:00:56;;;;;;;;;;;;;;;;;;;;;
2021/01/13 06:03:33;;;;;;;17.25;3.72;;;5.30;99.90;;;;;;4957815;29;20130;-92
2021/01/13 06:06:02;;;;;;;17.05;3.55;;;5.30;99.90;;;;;;4940635;29;20027;-93
2021/01/13 06:08:39;;;;;;;21.15;4.28;;;5.30;99.90;;;;;;4942104;29;20371;-93
2021/01/13 06:11:08;;;;;;;14.88;3.13;;;5.30;99.90;;;;;;4943763;29;20035;-91
2021/01/13 06:13:49;;;;;;;20.50;4.40;;;5.30;99.90;;;;;;4945277;29;20054;-92
2021/01/13 06:16:17;;;;;;;25.10;4.30;;;5.30;99.90;;;;;;4942127;29;20054;-92
2021/01/13 06:19:22;;;;;;;20.15;2.92;;;5.30;99.90;;;;;;4941761;29;20043;-93
2021/01/13 06:22:26;;;;;;;20.77;4.15;;;5.40;99.90;;;;;;4939807;29;20044;-93
2021/01/13 06:28:29;;;;;;;14.98;3.35;;;5.30;99.90;;;;;;4959222;29;20054;-93
2021/01/13 06:31:16;;;;;;;21.27;4.18;;;5.30;99.90;;;;;;4941531;29;20031;-92
2021/01/13 06:34:33;;;;;;;20.10;5.35;;;5.30;99.90;;;;;;4941579;29;20034;-92
2021/01/13 06:37:35;;;;;;;18.73;3.58;;;5.30;99.90;;;;;;4940538;29;20131;-92
2021/01/13 06:40:40;;;;;;;;;;;;;;;;;;;;;
2021/01/13 06:43:35;;;;;;;;;;;;;;;;;;;;;
2021/01/13 06:46:30;;;;;;;;;;;;;;;;;;;;;
2021/01/13 06:49:26;;;;;;;21.85;4.47;;;5.30;99.90;;;;;;4962875;29;20126;-92
2021/01/13 06:52:02;;;;;;;16.42;3.30;;;5.30;99.90;;;;;;4944451;29;20086;-93
2021/01/13 06:55:06;;;;;;;24.00;4.00;;;5.20;99.90;;;;;;4941324;29;20118;-93
2021/01/13 06:57:55;;;;;;;27.60;3.70;;;5.20;99.90;;;;;;4960618;28;20068;-92
2021/01/13 07:00:33;;;;;;;21.95;4.53;;;5.30;99.90;;;;;;4941337;29;20043;-93
2021/01/13 07:03:38;;;;;;;22.30;4.53;;;5.20;99.90;;;;;;4942017;29;20047;-92
2021/01/13 07:06:11;;;;;;;19.60;3.38;;;5.20;99.90;;;;;;4943726;29;20461;-92
2021/01/13 07:08:39;;;;;;;12.80;3.50;;;5.30;99.90;;;;;;4956840;29;20892;-92
2021/01/13 07:11:10;;;;;;;15.80;3.25;;;5.30;99.90;;;;;;4941565;29;20039;-91
2021/01/13 07:13:47;;;;;;;16.95;3.63;;;5.30;99.90;;;;;;4940613;29;20041;-91
2021/01/13 07:16:26;;;;;;;18.70;3.88;;;5.30;99.90;;;;;;4946843;29;20027;-93
2021/01/13 07:18:57;;;;;;;17.10;4.10;;;5.30;99.90;;;;;;4964062;29;20035;-90
2021/01/13 07:21:44;;;;;;;15.75;4.20;;;5.30;99.90;;;;;;4942408;29;20032;-91
2021/01/13 07:24:15;;;;;;;22.33;4.35;;;5.30;99.90;;;;;;4940317;29;20027;-91
2021/01/13 07:26:56;;;;;;;26.77;4.10;;;5.30;99.90;;;;;;4941420;29;20065;-92
2021/01/13 07:29:26;;;;;;;14.10;3.08;;;5.40;99.90;;;;;;4950204;29;20038;-91
2021/01/13 07:31:57;;;;;;;17.83;3.58;;;5.30;99.90;;;;;;4958390;29;20051;-90
2021/01/13 07:34:34;;;;;;;19.75;3.42;;;5.30;99.90;;;;;;4950744;29;20123;-92
2021/01/13 07:37:07;;;;;;;15.65;3.13;;;5.30;99.90;;;;;;4951867;29;20047;-90
2021/01/13 07:39:55;;;;;;;19.40;3.17;;;5.30;99.90;;;;;;4965230;29;20065;-91
2021/01/13 07:42:41;;;;;;;11.48;3.10;;;5.40;99.90;;;;;;4943400;29;20091;-90
2021/01/13 07:45:21;;;;;;;17.33;3.65;;;5.40;99.90;;;;;;4940887;29;20031;-90
2021/01/13 07:47:52;;;;;;;17.30;3.00;;;5.40;99.90;;;;;;4939797;29;20039;-90
2021/01/13 07:50:19;;;;;;;11.13;2.92;;;5.40;99.90;;;;;;4939321;29;20100;-90
2021/01/13 07:52:47;;;;;;;18.58;3.17;;;5.30;99.90;;;;;;4938141;29;20099;-90
2021/01/13 07:55:26;;;;;;;16.88;3.45;;;5.30;99.90;;;;;;4940698;29;20070;-88
2021/01/13 07:57:54;;;;;;;25.90;4.43;;;5.40;99.90;;;;;;4941686;29;20055;-89
2021/01/13 08:00:27;;;;;;;23.73;3.40;;;5.40;99.90;;;;;;4939785;29;20027;-89
2021/01/13 08:03:34;;;;;;;14.80;3.92;;;5.40;99.90;;;;;;4937804;29;20035;-89
2021/01/13 08:06:24;;;;;;;24.38;4.95;;;5.40;99.90;;;;;;4937997;29;20102;-89
2021/01/13 08:08:59;;;;;;;15.32;3.65;;;5.40;99.90;;;;;;4938322;29;20187;-89
2021/01/13 08:12:05;;;;;;;16.55;3.83;;;5.40;99.90;;;;;;4939495;29;20035;-89
2021/01/13 08:15:02;;;;;;;;;;;;;;;;;;;;;
2021/01/13 08:18:12;;;;;;;18.67;4.22;;;5.50;99.90;;;;;;4955940;29;20042;-91
2021/01/13 08:21:26;;;;;;;;;;;;;;;;;;;;;
2021/01/13 08:24:06;;;;;;;15.55;3.72;;;5.50;99.90;;;;;;4958472;29;20130;-90
2021/01/13 08:26:38;;;;;;;16.02;3.08;;;5.50;99.90;;;;;;4956187;29;20053;-91
2021/01/13 08:29:16;;;;;;;19.40;3.20;;;5.50;99.90;;;;;;4954557;29;20079;-90
2021/01/13 08:31:47;;;;;;;14.05;3.50;;;5.60;99.90;;;;;;4954804;29;20031;-89
2021/01/13 08:34:22;;;;;;;18.83;3.25;;;5.50;99.90;;;;;;4956509;29;20050;-90
2021/01/13 08:36:54;;;;;;;12.13;3.97;;;5.60;99.90;;;;;;4956736;29;20075;-90
2021/01/13 08:39:31;;;;;;;23.42;4.50;;;5.60;99.90;;;;;;4960074;29;20454;-90
2021/01/13 08:42:29;;;;;;;15.63;3.60;;;5.60;99.90;;;;;;4956967;29;20032;-90
2021/01/13 08:44:56;;;;;;;22.60;4.50;;;5.50;99.90;;;;;;4938535;29;20062;-90
2021/01/13 08:47:26;;;;;;;12.63;4.68;;;5.60;99.90;;;;;;4954268;29;20023;-89
2021/01/13 08:50:13;;;;;;;19.23;4.00;;;5.60;99.90;;;;;;4938493;29;20107;-91
2021/01/13 08:53:01;;;;;;;19.90;4.75;;;5.60;99.90;;;;;;4937467;29;20039;-93
2021/01/13 08:55:31;;;;;;;20.88;4.63;;;5.70;99.90;;;;;;4961138;29;20124;-91
2021/01/13 08:58:09;;;;;;;22.02;3.45;;;5.70;99.90;;;;;;4966845;29;20440;-90
2021/01/13 09:00:40;;;;;;;16.95;4.15;;;5.70;99.90;;;;;;4971429;29;20035;-94
2021/01/13 09:03:11;;;;;;;20.17;3.33;;;5.80;99.90;;;;;;4948522;29;20453;-91
2021/01/13 09:05:44;;;;;;;19.48;3.40;;;5.80;99.90;;;;;;4941921;29;20046;-89
2021/01/13 09:08:11;;;;;;;12.00;3.92;;;5.80;99.90;;;;;;4954484;29;20027;-89
2021/01/13 09:10:55;;;;;;;19.00;4.32;;;5.80;99.90;;;;;;4954198;29;20062;-88
2021/01/13 09:13:32;;;;;;;14.15;3.60;;;5.80;99.90;;;;;;4954998;28;20031;-89
2021/01/13 09:16:24;;;;;;;14.45;4.03;;;5.80;99.90;;;;;;4940973;29;20030;-89
2021/01/13 09:18:58;;;;;;;24.05;5.30;;;5.90;99.90;;;;;;4941002;29;20031;-89
2021/01/13 09:21:39;;;;;;;16.70;3.88;;;5.80;99.90;;;;;;4956780;29;20537;-91
2021/01/13 09:26:59;;;;;;;21.50;3.97;;;5.80;99.90;;;;;;4960325;29;20023;-88
2021/01/13 09:29:28;;;;;;;19.60;3.97;;;5.90;99.90;;;;;;4959444;29;20047;-90
2021/01/13 09:32:12;;;;;;;24.98;5.32;;;5.90;99.90;;;;;;4957484;29;20071;-92
2021/01/13 09:34:42;;;;;;;20.55;4.55;;;5.90;99.90;;;;;;4959399;29;20070;-90
2021/01/13 09:37:08;;;;;;;17.90;3.90;;;5.90;99.90;;;;;;4941484;29;20086;-89
2021/01/13 09:40:01;;;;;;;24.27;4.38;;;5.90;99.90;;;;;;4939481;29;20042;-91
2021/01/13 09:42:41;;;;;;;25.67;4.90;;;5.90;99.90;;;;;;4938816;29;20525;-90
2021/01/13 09:45:10;;;;;;;25.92;4.53;;;5.90;99.90;;;;;;4956673;29;20038;-89
2021/01/13 09:47:36;;;;;;;21.05;3.92;;;6.00;99.90;;;;;;4956762;29;20027;-89
2021/01/13 09:50:03;;;;;;;23.17;3.88;;;6.00;99.90;;;;;;4958196;29;20027;-90
2021/01/13 09:52:41;;;;;;;24.25;4.18;;;6.00;99.90;;;;;;4967202;29;20046;-90
2021/01/13 09:55:08;;;;;;;21.60;4.35;;;6.10;99.90;;;;;;4973229;29;20517;-90
2021/01/13 09:57:36;;;;;;;14.10;3.70;;;6.10;99.90;;;;;;4966778;29;20058;-90
2021/01/13 10:00:11;;;;;;;21.90;3.90;;;6.10;99.90;;;;;;4943992;29;20477;-90
2021/01/13 10:02:38;;;;;;;21.85;4.13;;;6.10;99.90;;;;;;4941761;29;20275;-90
2021/01/13 10:05:14;;;;;;;17.20;4.45;;;6.10;99.90;;;;;;4956736;29;20434;-90
2021/01/13 10:07:40;;;;;;;19.58;4.93;;;6.10;99.90;;;;;;4957008;29;20019;-90
2021/01/13 10:10:07;;;;;;;22.38;5.13;;;6.10;99.90;;;;;;4957587;29;20060;-89
2021/01/13 10:12:49;;;;;;;20.58;5.95;;;6.10;99.90;;;;;;4957254;29;20033;-89
2021/01/13 10:15:16;;;;;;;20.20;4.32;;;6.20;99.90;;;;;;4959559;29;20023;-89
2021/01/13 10:17:43;;;;;;;21.80;5.53;;;6.10;99.90;;;;;;4958921;29;20038;-90
2021/01/13 10:20:23;;;;;;;23.50;5.22;;;6.10;99.90;;;;;;4957713;29;20037;-89
2021/01/13 10:23:00;;;;;;;19.05;4.65;;;6.10;99.90;;;;;;4957544;29;20127;-89
2021/01/13 10:25:35;;;;;;;17.02;3.95;;;6.20;99.90;;;;;;4958261;28;20046;-90
2021/01/13 10:28:01;;;;;;;19.42;4.40;;;6.20;99.90;;;;;;4960621;29;20031;-89
2021/01/13 10:30:30;;;;;;;15.05;3.67;;;6.10;99.90;;;;;;4960045;29;20023;-88
2021/01/13 10:33:02;;;;;;;24.60;4.57;;;6.10;99.90;;;;;;4958231;29;20035;-89
2021/01/13 10:35:47;;;;;;;13.50;3.47;;;6.10;99.90;;;;;;4941853;29;20032;-89
2021/01/13 10:38:17;;;;;;;;;;;6.20;99.90;;;;;;4941930;29;20063;-89
2021/01/13 10:40:46;;;;;;;21.27;4.55;;;6.20;99.90;;;;;;4925744;29;19914;-89
2021/01/13 10:43:25;;;;;;;17.38;4.75;;;6.20;99.90;;;;;;4957005;29;20067;-89
2021/01/13 10:45:58;;;;;;;15.52;4.45;;;6.00;99.90;;;;;;4941094;29;20507;-90
2021/01/13 10:48:24;;;;;;;18.55;5.60;;;6.00;99.90;;;;;;4958657;29;20027;-87
2021/01/13 10:50:54;;;;;;;22.65;5.10;;;6.00;99.90;;;;;;4955405;29;20126;-90
2021/01/13 10:53:34;;;;;;;27.52;4.70;;;6.10;99.90;;;;;;4955529;29;20119;-89
2021/01/13 10:56:15;;;;;;;20.40;4.88;;;6.10;99.90;;;;;;4955507;29;20027;-89
2021/01/13 10:58:46;;;;;;;20.35;3.83;;;6.10;99.90;;;;;;4964071;29;20027;-90
2021/01/13 11:01:25;;;;;;;14.95;3.58;;;6.10;99.90;;;;;;4946369;29;20039;-90
2021/01/13 11:03:58;;;;;;;21.48;4.93;;;6.10;99.90;;;;;;4960890;29;20453;-88
2021/01/13 11:06:30;;;;;;;17.27;3.70;;;6.10;99.90;;;;;;4945237;29;20031;-88
2021/01/13 11:08:59;;;;;;;18.25;3.75;;;6.10;99.90;;;;;;4961056;29;20031;-88
2021/01/13 11:11:25;;;;;;;18.65;3.85;;;6.20;99.90;;;;;;4959662;29;20031;-88
2021/01/13 11:13:50;;;;;;;23.75;4.65;;;6.30;99.90;;;;;;4940276;29;20042;-88
2021/01/13 11:16:16;;;;;;;19.20;4.47;;;6.30;99.90;;;;;;4956401;29;20098;-88
2021/01/13 11:18:42;;;;;;;18.58;4.50;;;6.50;99.90;;;;;;4940356;29;20035;-88
2021/01/13 11:21:09;;;;;;;24.95;4.93;;;6.50;99.90;;;;;;4940610;29;20043;-88
2021/01/13 11:23:47;;;;;;;24.40;5.03;;;6.60;99.90;;;;;;4955896;29;20086;-89
2021/01/13 11:26:16;;;;;;;15.77;4.40;;;6.70;99.90;;;;;;4955086;29;20441;-89
2021/01/13 11:28:43;;;;;;;18.25;5.18;;;6.70;99.90;;;;;;4939702;29;20034;-88
2021/01/13 11:31:18;;;;;;;21.63;5.15;;;6.70;99.90;;;;;;4960884;29;20035;-88
2021/01/13 11:33:48;;;;;;;16.30;5.25;;;6.70;99.90;;;;;;4947546;29;20038;-89
2021/01/13 11:36:25;;;;;;;25.27;4.53;;;6.70;99.90;;;;;;4956043;28;20414;-90
2021/01/13 11:39:06;;;;;;;21.10;5.18;;;6.80;99.90;;;;;;4955550;29;20027;-91
2021/01/13 11:42:16;;;;;;;22.70;5.93;;;6.80;99.90;;;;;;4940366;29;20048;-89
2021/01/13 11:45:14;;;;;;;18.58;4.32;;;6.80;99.90;;;;;;4910234;29;20101;-89
2021/01/13 11:47:45;;;;;;;25.98;6.22;;;6.80;99.90;;;;;;4957983;29;20525;-83
2021/01/13 11:50:19;;;;;;;19.52;4.80;;;6.80;99.90;;;;;;4938284;29;20035;-82
2021/01/13 11:52:48;;;;;;;25.73;6.00;;;6.80;99.90;;;;;;4955589;29;20057;-81
2021/01/13 11:55:14;;;;;;;24.27;5.47;;;6.70;99.90;;;;;;4955176;29;20040;-81
2021/01/13 11:57:46;;;;;;;25.13;5.50;;;6.60;99.90;;;;;;4956422;29;20029;-89
2021/01/13 12:00:29;;;;;;;13.95;4.03;;;6.50;99.90;;;;;;4956700;29;20527;-90
2021/01/13 12:02:58;;;;;;;26.45;5.28;;;6.60;99.90;;;;;;4956581;29;20470;-89
2021/01/13 12:05:34;;;;;;;23.40;5.30;;;6.90;99.90;;;;;;4955903;29;20038;-91
2021/01/13 12:08:16;;;;;;;19.77;5.10;;;7.10;99.90;;;;;;4954386;29;20027;-91
2021/01/13 12:10:44;;;;;;;22.40;5.25;;;7.10;99.90;;;;;;4956996;29;20059;-90
2021/01/13 12:13:23;;;;;;;22.00;5.07;;;7.00;99.90;;;;;;4956790;29;20035;-91
2021/01/13 12:15:59;;;;;;;16.13;4.55;;;6.90;99.90;;;;;;4940598;29;20031;-92
2021/01/13 12:18:40;;;;;;;16.30;4.05;;;6.80;99.90;;;;;;4940596;29;20050;-90
2021/01/13 12:21:12;;;;;;;15.95;4.75;;;6.80;99.90;;;;;;4952433;29;20031;-91
2021/01/13 12:23:42;;;;;;;20.80;3.70;;;6.80;99.90;;;;;;4954972;29;20035;-89
2021/01/13 12:26:22;;;;;;;20.08;4.28;;;6.80;99.90;;;;;;4958536;29;20031;-90
2021/01/13 12:28:56;;;;;;;21.58;4.47;;;6.60;99.90;;;;;;4950545;29;20031;-90
2021/01/13 12:31:22;;;;;;;21.50;4.07;;;6.70;99.90;;;;;;4941232;29;20039;-90
2021/01/13 12:33:54;;;;;;;13.07;3.45;;;6.70;99.90;;;;;;4943979;29;20118;-92
2021/01/13 12:36:28;;;;;;;19.30;5.20;;;6.80;99.90;;;;;;4957728;29;20055;-90
2021/01/13 12:38:59;;;;;;;19.13;4.00;;;6.80;99.90;;;;;;4940930;29;20038;-90
2021/01/13 12:41:36;;;;;;;16.20;4.78;;;6.80;99.90;;;;;;4941296;29;20127;-90
2021/01/13 12:44:06;;;;;;;16.80;3.75;;;6.80;99.90;;;;;;4946638;29;20042;-90
2021/01/13 12:46:34;;;;;;;15.15;4.13;;;6.70;99.90;;;;;;4945417;29;20036;-89
2021/01/13 12:49:01;;;;;;;11.88;3.58;;;6.80;99.90;;;;;;4947081;29;20054;-89
2021/01/13 12:51:29;;;;;;;19.25;4.13;;;6.80;99.90;;;;;;4928497;29;20437;-90
2021/01/13 12:53:59;;;;;;;19.50;3.95;;;6.80;99.90;;;;;;4961754;29;20055;-89
2021/01/13 12:56:29;;;;;;;17.10;3.63;;;6.90;99.90;;;;;;4944253;29;20055;-89
2021/01/13 12:58:57;;;;;;;15.85;3.95;;;6.80;99.90;;;;;;4945566;29;20031;-88
2021/01/13 13:01:25;;;;;;;14.52;4.18;;;6.80;99.90;;;;;;4948265;29;20027;-88
2021/01/13 13:03:51;;;;;;;15.00;4.07;;;6.90;99.90;;;;;;4945267;28;20083;-87
2021/01/13 13:06:27;;;;;;;16.73;3.25;;;7.00;99.90;;;;;;4965181;28;20059;-88
2021/01/13 13:09:00;;;;;;;17.98;3.88;;;7.00;99.90;;;;;;4980700;28;20015;-88
2021/01/13 13:11:27;;;;;;;19.50;4.03;;;7.10;99.90;;;;;;4980463;29;20023;-89
2021/01/13 13:13:54;;;;;;;17.35;4.28;;;7.00;99.90;;;;;;4947621;29;20023;-87
2021/01/13 13:16:22;;;;;;;15.07;3.40;;;7.00;99.90;;;;;;4960977;29;20204;-88
2021/01/13 13:18:49;;;;;;;14.68;3.85;;;7.00;99.90;;;;;;4951834;29;20103;-89
2021/01/13 13:21:19;;;;;;;22.65;3.70;;;6.90;99.90;;;;;;4961069;28;20039;-91
2021/01/13 13:23:45;;;;;;;21.35;3.90;;;6.90;99.90;;;;;;4964467;28;20028;-88
2021/01/13 13:26:14;;;;;;;17.52;3.45;;;6.80;99.90;;;;;;4964488;28;20059;-89
2021/01/13 13:28:40;;;;;;;19.55;3.58;;;6.80;99.90;;;;;;4964060;28;20015;-89
2021/01/13 13:31:07;;;;;;;14.30;3.30;;;6.90;99.90;;;;;;4981334;28;20016;-93
2021/01/13 13:33:34;;;;;;;17.45;3.95;;;7.00;99.90;;;;;;4964790;28;20035;-89
2021/01/13 13:36:01;;;;;;;14.30;3.20;;;7.00;99.90;;;;;;4964002;29;20023;-89
2021/01/13 13:38:27;;;;;;;15.82;3.08;;;7.00;99.90;;;;;;4952174;29;20063;-89
2021/01/13 13:40:53;;;;;;;19.15;3.10;;;6.90;99.90;;;;;;4939026;29;20035;-89
2021/01/13 13:43:18;;;;;;;16.27;3.22;;;6.80;99.90;;;;;;4916354;29;20107;-89
2021/01/13 13:45:45;;;;;;;17.17;4.05;;;6.80;99.90;;;;;;4931643;29;20126;-88
2021/01/13 13:48:11;;;;;;;17.50;3.47;;;6.70;99.90;;;;;;4946431;29;20032;-89
2021/01/13 13:50:37;;;;;;;17.70;3.95;;;6.70;99.90;;;;;;4944436;29;20467;-89
2021/01/13 13:53:05;;;;;;;17.02;3.63;;;6.60;99.90;;;;;;4925593;29;20116;-89
2021/01/13 13:55:34;;;;;;;13.15;3.25;;;6.60;99.90;;;;;;4941104;29;20027;-89
2021/01/13 13:58:00;;;;;;;8.95;2.50;;;6.60;99.90;;;;;;4925376;29;20042;-89
2021/01/13 14:00:26;;;;;;;15.40;4.20;;;6.50;99.90;;;;;;4939113;29;20059;-89
2021/01/13 14:02:52;;;;;;;11.55;3.28;;;6.50;99.90;;;;;;4943367;29;20087;-89
2021/01/13 14:05:17;;;;;;;14.82;3.28;;;6.50;99.90;;;;;;4924211;29;20404;-89
2021/01/13 14:07:43;;;;;;;8.77;3.22;;;6.50;99.90;;;;;;4940098;29;20035;-88
2021/01/13 14:10:14;;;;;;;19.48;4.40;;;6.50;99.90;;;;;;4924350;29;20435;-90
2021/01/13 14:12:40;;;;;;;22.40;3.45;;;6.50;99.90;;;;;;4944028;29;20126;-88
2021/01/13 14:15:07;;;;;;;11.70;3.70;;;6.40;99.90;;;;;;4959827;29;20037;-90
2021/01/13 14:17:33;;;;;;;20.85;3.70;;;6.40;99.90;;;;;;4932695;29;20023;-88
2021/01/13 14:20:00;;;;;;;20.05;3.53;;;6.40;99.90;;;;;;4930177;29;20035;-89
2021/01/13 14:22:26;;;;;;;15.55;3.08;;;6.50;99.90;;;;;;4924621;29;20031;-89
2021/01/13 14:24:52;;;;;;;11.98;3.00;;;6.50;99.90;;;;;;4924364;29;20042;-88
2021/01/13 14:27:18;;;;;;;17.48;3.00;;;6.40;99.90;;;;;;4925042;29;20047;-89
2021/01/13 14:29:44;;;;;;;10.65;2.45;;;6.60;99.90;;;;;;4940697;29;20031;-89
2021/01/13 14:32:14;;;;;;;15.85;3.08;;;6.60;99.90;;;;;;4925485;29;20059;-89
2021/01/13 14:34:40;;;;;;;16.27;3.28;;;6.50;99.90;;;;;;4957394;29;20059;-88
2021/01/13 14:37:06;;;;;;;13.05;2.90;;;6.50;99.90;;;;;;4939739;29;20059;-88
2021/01/13 14:39:33;;;;;;;9.25;2.92;;;6.40;99.90;;;;;;4924298;29;20035;-88
2021/01/13 14:42:03;;;;;;;19.52;3.40;;;6.40;99.90;;;;;;4939671;29;20474;-87
2021/01/13 14:44:28;;;;;;;14.48;2.92;;;6.50;99.90;;;;;;4941174;29;20039;-89
2021/01/13 14:46:54;;;;;;;22.02;5.03;;;6.60;99.90;;;;;;4940183;29;20038;-89
2021/01/13 14:49:25;;;;;;;20.17;4.32;;;6.50;99.90;;;;;;4948872;29;20070;-90
2021/01/13 14:51:51;;;;;;;22.08;3.42;;;6.60;99.90;;;;;;4958422;29;20062;-87
2021/01/13 14:54:16;;;;;;;17.45;3.65;;;6.50;99.90;;;;;;4939386;29;20119;-89
2021/01/13 14:56:42;;;;;;;13.18;3.80;;;6.50;99.90;;;;;;4943627;29;20035;-89
2021/01/13 14:59:08;;;;;;;14.57;3.22;;;6.40;99.90;;;;;;4939972;29;20062;-88
2021/01/13 15:01:36;;;;;;;16.77;3.38;;;6.50;99.90;;;;;;4939319;29;20055;-89
2021/01/13 15:04:02;;;;;;;12.75;3.92;;;6.40;99.90;;;;;;4939944;29;20043;-88
2021/01/13 15:06:28;;;;;;;22.88;3.95;;;6.40;99.90;;;;;;4939414;29;20033;-88
2021/01/13 15:08:54;;;;;;;13.80;3.95;;;6.40;99.90;;;;;;4924209;29;20035;-89
2021/01/13 15:11:19;;;;;;;15.93;3.88;;;6.40;99.90;;;;;;4923453;29;20420;-89
2021/01/13 15:13:46;;;;;;;20.08;3.88;;;6.40;99.90;;;;;;4942131;29;20127;-90
2021/01/13 15:16:12;;;;;;;21.55;4.28;;;6.30;99.90;;;;;;4941598;29;20034;-89
2021/01/13 15:18:38;;;;;;;14.27;3.10;;;6.20;99.90;;;;;;4940997;29;20142;-89
2021/01/13 15:21:18;;;;;;;16.70;3.67;;;6.10;99.90;;;;;;4950086;29;20454;-88
2021/01/13 15:23:46;;;;;;;19.15;4.90;;;6.20;99.90;;;;;;4962304;29;20039;-88